createdAt,value
2022-10-14T00:02:17.783Z,101254.31
2022-10-14T00:04:44.427Z,101256.63
2022-10-14T00:07:10.998Z,101258.28
2022-10-14T00:09:37.493Z,101262.25
2022-10-14T00:12:03.999Z,101253.66
2022-10-14T00:14:30.577Z,101263.91
2022-10-14T00:16:57.026Z,101259.78
2022-10-14T00:19:23.480Z,101256.16
2022-10-14T00:21:49.935Z,101248.53
2022-10-14T00:24:17.122Z,101260.25
2022-10-14T00:26:43.639Z,101254.97
2022-10-14T00:29:13.727Z,101255.97
2022-10-14T00:31:40.276Z,101261.75
2022-10-14T00:34:06.743Z,101265.75
2022-10-14T00:36:33.196Z,101272.03
2022-10-14T00:38:59.665Z,101273.19
2022-10-14T00:41:29.501Z,101269.03
2022-10-14T00:44:12.933Z,101271.53
2022-10-14T00:46:44.178Z,101269.88
2022-10-14T00:49:10.638Z,101274.34
2022-10-14T00:51:38.882Z,101272.34
2022-10-14T00:54:05.884Z,101274.00
2022-10-14T00:56:32.390Z,101271.84
2022-10-14T00:59:00.289Z,101274.84
2022-10-14T01:01:26.745Z,101270.53
2022-10-14T01:03:53.258Z,101269.88
2022-10-14T01:06:39.440Z,101270.22
2022-10-14T01:09:32.322Z,101272.88
2022-10-14T01:15:05.173Z,101267.88
2022-10-14T01:17:53.287Z,101263.78
2022-10-14T01:20:31.979Z,101265.69
2022-10-14T01:23:35.021Z,101262.91
2022-10-14T01:26:20.166Z,101268.53
2022-10-14T01:29:07.078Z,101258.75
2022-10-14T01:31:35.708Z,101263.91
2022-10-14T01:34:07.110Z,101267.22
2022-10-14T01:36:35.107Z,101256.63
2022-10-14T01:39:13.214Z,101265.06
2022-10-14T01:41:43.578Z,101260.25
2022-10-14T01:44:11.617Z,101257.59
2022-10-14T01:46:40.183Z,101250.81
2022-10-14T01:49:15.303Z,101260.25
2022-10-14T01:51:47.084Z,101253.94
2022-10-14T01:54:17.975Z,101255.94
2022-10-14T01:56:45.325Z,101260.59
2022-10-14T01:59:12.656Z,101257.75
2022-10-14T02:01:39.155Z,101261.56
2022-10-14T02:04:19.581Z,101256.53
2022-10-14T02:07:14.773Z,101257.72
2022-10-14T02:09:59.435Z,101250.38
2022-10-14T02:12:34.816Z,101254.81
2022-10-14T02:15:18.299Z,101243.03
2022-10-14T02:17:55.635Z,101246.88
2022-10-14T02:20:29.390Z,101244.47
2022-10-14T02:23:00.632Z,101247.41
2022-10-14T02:25:31.119Z,101248.97
2022-10-14T02:27:59.180Z,101250.06
2022-10-14T02:30:27.760Z,101254.88
2022-10-14T02:32:55.141Z,101247.09
2022-10-14T02:35:24.036Z,101247.94
2022-10-14T02:37:52.150Z,101244.75
2022-10-14T02:40:25.477Z,101251.53
2022-10-14T02:42:52.053Z,101248.41
2022-10-14T02:45:19.046Z,101248.41
2022-10-14T02:47:45.608Z,101255.53
2022-10-14T02:50:12.367Z,101250.22
2022-10-14T02:52:38.851Z,101249.09
2022-10-14T02:55:05.620Z,101242.28
2022-10-14T02:57:32.067Z,101237.78
2022-10-14T02:59:58.541Z,101238.78
2022-10-14T03:02:25.036Z,101236.34
2022-10-14T03:04:51.513Z,101240.28
2022-10-14T03:07:17.976Z,101233.66
2022-10-14T03:09:44.425Z,101232.00
2022-10-14T03:12:10.946Z,101230.31
2022-10-14T03:14:37.411Z,101228.50
2022-10-14T03:17:03.921Z,101230.84
2022-10-14T03:19:30.372Z,101233.94
2022-10-14T03:21:57.056Z,101230.66
2022-10-14T03:24:23.511Z,101231.19
2022-10-14T03:26:50.003Z,101239.66
2022-10-14T03:29:16.450Z,101235.19
2022-10-14T03:31:42.981Z,101235.03
2022-10-14T03:34:10.152Z,101238.59
2022-10-14T03:36:36.602Z,101236.97
2022-10-14T03:39:03.211Z,101229.88
2022-10-14T03:41:29.719Z,101231.53
2022-10-14T03:43:56.239Z,101231.69
2022-10-14T03:46:22.705Z,101228.22
2022-10-14T03:48:49.157Z,101225.84
2022-10-14T03:51:15.874Z,101224.00
2022-10-14T03:53:42.333Z,101226.84
2022-10-14T03:56:08.789Z,101227.44
2022-10-14T03:58:35.239Z,101227.25
2022-10-14T04:01:01.695Z,101222.28
2022-10-14T04:03:28.203Z,101225.06
2022-10-14T04:05:54.653Z,101225.06
2022-10-14T04:08:21.116Z,101223.19
2022-10-14T04:10:55.223Z,101212.25
2022-10-14T04:13:22.339Z,101216.69
2022-10-14T04:15:49.342Z,101221.38
2022-10-14T04:18:15.828Z,101223.06
2022-10-14T04:20:42.561Z,101213.13
2022-10-14T04:23:09.075Z,101212.28
2022-10-14T04:25:37.855Z,101214.44
2022-10-14T04:28:04.299Z,101215.44
2022-10-14T04:30:32.683Z,101213.13
2022-10-14T04:32:59.153Z,101206.91
2022-10-14T04:35:25.646Z,101202.53
2022-10-14T04:37:52.117Z,101211.84
2022-10-14T04:40:20.442Z,101204.91
2022-10-14T04:42:48.034Z,101202.94
2022-10-14T04:45:14.557Z,101207.06
2022-10-14T04:47:44.960Z,101201.13
2022-10-14T04:50:14.194Z,101201.13
2022-10-14T04:52:40.672Z,101205.59
2022-10-14T04:55:07.248Z,101203.81
2022-10-14T04:57:33.821Z,101201.81
2022-10-14T05:00:00.314Z,101200.66
2022-10-14T05:02:26.816Z,101198.31
2022-10-14T05:04:53.272Z,101197.81
2022-10-14T05:07:20.106Z,101196.00
2022-10-14T05:09:50.375Z,101186.06
2022-10-14T05:12:18.782Z,101183.88
2022-10-14T05:14:46.517Z,101189.69
2022-10-14T05:17:13.277Z,101188.88
2022-10-14T05:19:39.767Z,101189.50
2022-10-14T05:22:06.232Z,101189.69
2022-10-14T05:24:32.675Z,101190.69
2022-10-14T05:26:59.180Z,101183.38
2022-10-14T05:29:25.634Z,101184.38
2022-10-14T05:31:52.171Z,101192.16
2022-10-14T05:34:18.679Z,101188.34
2022-10-14T05:36:45.316Z,101194.66
2022-10-14T05:39:11.782Z,101188.03
2022-10-14T05:41:38.780Z,101187.69
2022-10-14T05:44:05.503Z,101181.56
2022-10-14T05:46:32.208Z,101175.91
2022-10-14T05:49:00.297Z,101178.19
2022-10-14T05:51:26.931Z,101180.53
2022-10-14T05:53:53.475Z,101170.72
2022-10-14T05:56:20.436Z,101172.19
2022-10-14T05:58:46.956Z,101168.56
2022-10-14T06:01:13.428Z,101170.72
2022-10-14T06:03:39.923Z,101169.94
2022-10-14T06:06:06.674Z,101170.56
2022-10-14T06:08:33.560Z,101175.41
2022-10-14T06:11:03.040Z,101173.72
2022-10-14T06:13:29.527Z,101171.06
2022-10-14T06:15:56.053Z,101174.84
2022-10-14T06:18:22.511Z,101179.03
2022-10-14T06:20:53.660Z,101179.78
2022-10-14T06:23:20.214Z,101172.63
2022-10-14T06:25:46.712Z,101181.34
2022-10-14T06:28:13.168Z,101186.09
2022-10-14T06:30:39.780Z,101173.97
2022-10-14T06:33:06.253Z,101175.72
2022-10-14T06:35:32.822Z,101174.56
2022-10-14T06:37:59.286Z,101178.50
2022-10-14T06:40:26.082Z,101172.50
2022-10-14T06:42:53.556Z,101169.88
2022-10-14T06:45:20.018Z,101167.69
2022-10-14T06:47:48.812Z,101172.41
2022-10-14T06:50:15.259Z,101163.59
2022-10-14T06:52:41.706Z,101171.03
2022-10-14T06:55:08.152Z,101165.31
2022-10-14T06:57:34.809Z,101165.41
2022-10-14T07:00:01.254Z,101166.53
2022-10-14T07:02:27.740Z,101163.00
2022-10-14T07:04:54.252Z,101162.81
2022-10-14T07:07:20.749Z,101178.78
2022-10-14T07:09:47.211Z,101174.84
2022-10-14T07:12:13.680Z,101173.09
2022-10-14T07:14:40.123Z,101176.97
2022-10-14T07:17:09.561Z,101175.97
2022-10-14T07:19:36.487Z,101180.53
2022-10-14T07:22:03.040Z,101177.22
2022-10-14T07:24:29.498Z,101180.44
2022-10-14T07:26:56.000Z,101181.19
2022-10-14T07:29:22.498Z,101176.94
2022-10-14T07:31:48.961Z,101176.84
2022-10-14T07:34:15.678Z,101179.78
2022-10-14T07:36:42.219Z,101183.34
2022-10-14T07:39:08.725Z,101179.88
2022-10-14T07:41:35.186Z,101186.78
2022-10-14T07:44:05.892Z,101180.25
2022-10-14T07:46:33.861Z,101191.28
2022-10-14T07:49:04.133Z,101183.94
2022-10-14T07:51:34.710Z,101182.25
2022-10-14T07:54:05.110Z,101195.03
2022-10-14T07:56:31.658Z,101189.53
2022-10-14T07:58:58.358Z,101197.50
2022-10-14T08:01:24.973Z,101199.16
2022-10-14T08:03:52.064Z,101197.94
2022-10-14T08:06:18.544Z,101194.75
2022-10-14T08:08:45.104Z,101191.81
2022-10-14T08:11:14.236Z,101189.78
2022-10-14T08:13:43.514Z,101187.41
2022-10-14T08:16:23.716Z,101186.28
2022-10-14T08:18:50.885Z,101185.53
2022-10-14T08:21:18.735Z,101188.19
2022-10-14T08:23:45.651Z,101189.28
2022-10-14T08:26:22.627Z,101187.25
2022-10-14T08:28:53.831Z,101190.81
2022-10-14T08:31:20.946Z,101190.69
2022-10-14T08:33:47.542Z,101194.00
2022-10-14T08:36:14.683Z,101195.94
2022-10-14T08:38:42.386Z,101185.97
2022-10-14T08:41:23.289Z,101196.53
2022-10-14T08:44:09.337Z,101189.84
2022-10-14T08:47:15.401Z,101193.00
2022-10-14T08:49:58.900Z,101193.59
2022-10-14T08:52:39.852Z,101191.03
2022-10-14T08:55:30.771Z,101193.06
2022-10-14T08:58:02.029Z,101182.66
2022-10-14T09:00:31.159Z,101179.31
2022-10-14T09:02:59.895Z,101173.34
2022-10-14T09:05:27.498Z,101178.09
2022-10-14T09:07:56.593Z,101176.56
2022-10-14T09:10:33.519Z,101173.34
2022-10-14T09:13:07.182Z,101173.06
2022-10-14T09:15:44.011Z,101184.50
2022-10-14T09:18:38.158Z,101179.84
2022-10-14T09:21:33.878Z,101173.31
2022-10-14T09:24:27.423Z,101180.84
2022-10-14T09:29:31.623Z,101170.97
2022-10-14T09:32:22.962Z,101171.03
2022-10-14T09:34:50.784Z,101153.28
2022-10-14T09:37:26.331Z,101157.28
2022-10-14T09:39:55.914Z,101165.16
2022-10-14T09:42:48.442Z,101165.72
2022-10-14T09:45:17.311Z,101165.13
2022-10-14T09:48:04.092Z,101153.16
2022-10-14T09:50:38.620Z,101160.97
2022-10-14T09:53:31.120Z,101156.38
2022-10-14T09:56:00.225Z,101159.22
2022-10-14T09:58:37.686Z,101153.50
2022-10-14T10:01:04.271Z,101151.63
2022-10-14T10:03:35.485Z,101153.06
2022-10-14T10:06:05.595Z,101150.47
2022-10-14T10:08:33.126Z,101143.78
2022-10-14T10:11:11.207Z,101144.06
2022-10-14T10:13:46.024Z,101144.50
2022-10-14T10:16:27.642Z,101144.53
2022-10-14T10:18:55.785Z,101139.78
2022-10-14T10:21:30.766Z,101135.22
2022-10-14T10:24:00.455Z,101134.19
2022-10-14T10:26:35.867Z,101137.31
2022-10-14T10:29:05.507Z,101135.44
2022-10-14T10:32:08.875Z,101132.97
2022-10-14T10:34:50.689Z,101133.94
2022-10-14T10:37:31.864Z,101136.81
2022-10-14T10:40:34.905Z,101127.94
2022-10-14T10:43:23.682Z,101131.06
2022-10-14T10:46:05.716Z,101123.06
2022-10-14T10:48:34.604Z,101128.41
2022-10-14T10:51:09.841Z,101119.38
2022-10-14T10:54:21.402Z,101131.94
2022-10-14T10:56:54.519Z,101119.19
2022-10-14T10:59:45.895Z,101110.47
2022-10-14T11:02:12.351Z,101110.22
2022-10-14T11:05:09.032Z,101109.13
2022-10-14T11:11:43.074Z,101099.41
2022-10-14T11:14:19.801Z,101092.41
2022-10-14T11:16:55.753Z,101087.28
2022-10-14T11:19:24.523Z,101087.06
2022-10-14T11:22:22.010Z,101088.34
2022-10-14T11:24:58.930Z,101088.34
2022-10-14T11:27:34.647Z,101079.97
2022-10-14T11:30:16.556Z,101080.75
2022-10-14T11:33:02.020Z,101066.88
2022-10-14T11:38:29.524Z,101042.22
2022-10-14T11:41:14.454Z,101042.63
2022-10-14T11:43:51.983Z,101034.06
2022-10-14T11:46:22.550Z,101019.22
2022-10-14T11:49:04.730Z,101022.69
2022-10-14T11:51:41.041Z,101021.16
2022-10-14T11:54:20.230Z,100990.84
2022-10-14T11:56:56.208Z,101011.91
2022-10-14T11:59:45.809Z,101008.44
2022-10-14T12:02:21.539Z,101000.88
2022-10-14T12:04:54.193Z,100975.47
2022-10-14T12:07:25.199Z,101001.56
2022-10-14T12:09:59.783Z,100996.28
2022-10-14T12:12:28.534Z,100979.69
2022-10-14T12:15:08.636Z,100956.84
2022-10-14T12:18:08.183Z,100937.09
2022-10-14T12:20:40.284Z,100948.41
2022-10-14T12:23:08.570Z,100955.09
2022-10-14T12:26:01.079Z,100955.69
2022-10-14T12:28:27.789Z,100916.34
2022-10-14T12:31:20.760Z,100935.41
2022-10-14T12:34:15.803Z,100936.06
2022-10-14T12:36:44.400Z,100955.53
2022-10-14T12:39:16.831Z,100936.56
2022-10-14T12:41:59.595Z,100927.41
2022-10-14T12:44:34.612Z,100940.53
2022-10-14T12:47:01.086Z,100943.09
2022-10-14T12:49:30.324Z,100983.88
2022-10-14T12:51:59.916Z,100960.13
2022-10-14T12:54:26.842Z,100951.09
2022-10-14T12:57:21.203Z,100948.81
2022-10-14T12:59:52.203Z,100942.66
2022-10-14T13:02:38.082Z,100952.34
2022-10-14T13:05:21.735Z,100929.66
2022-10-14T13:08:14.786Z,100917.69
2022-10-14T13:10:47.634Z,100954.44
2022-10-14T13:13:42.297Z,100979.25
2022-10-14T13:16:12.401Z,100983.78
2022-10-14T13:18:39.622Z,100996.41
2022-10-14T13:21:10.203Z,100986.09
2022-10-14T13:23:41.394Z,100981.75
2022-10-14T13:26:24.558Z,100951.84
2022-10-14T13:29:02.267Z,100928.81
2022-10-14T13:31:35.397Z,100958.59
2022-10-14T13:34:26.893Z,100987.06
2022-10-14T13:37:17.262Z,100985.94
2022-10-14T13:39:43.736Z,100992.66
2022-10-14T13:42:14.564Z,100992.72
2022-10-14T13:44:41.136Z,100971.22
2022-10-14T13:47:13.240Z,100979.41
2022-10-14T13:49:40.611Z,100970.44
2022-10-14T13:52:16.238Z,100959.56
2022-10-14T13:54:42.737Z,100927.25
2022-10-14T13:57:42.601Z,100911.06
2022-10-14T14:02:48.047Z,100917.38
2022-10-14T14:05:17.439Z,100910.34
2022-10-14T14:10:31.744Z,100894.06
2022-10-14T14:12:59.842Z,100844.91
2022-10-14T14:15:27.449Z,100856.25
2022-10-14T14:17:54.366Z,100857.25
2022-10-14T14:20:23.890Z,100846.50
2022-10-14T14:22:50.626Z,100843.97
2022-10-14T14:25:34.180Z,100891.41
2022-10-14T14:28:05.593Z,100892.72
2022-10-14T14:30:34.008Z,100885.13
2022-10-14T14:33:09.783Z,100900.00
2022-10-14T14:35:36.330Z,100913.44
2022-10-14T14:38:03.381Z,100901.75
2022-10-14T14:40:31.110Z,100899.31
2022-10-14T14:43:02.460Z,100919.94
2022-10-14T14:45:31.283Z,100931.28
2022-10-14T14:48:02.159Z,100936.78
2022-10-14T14:50:33.748Z,100916.50
2022-10-14T14:53:10.547Z,100902.41
2022-10-14T14:55:43.406Z,100923.53
2022-10-14T14:58:21.307Z,100925.50
2022-10-14T15:00:49.887Z,100936.31
2022-10-14T15:03:16.582Z,100947.09
2022-10-14T15:05:59.898Z,100938.81
2022-10-14T15:08:35.000Z,100940.19
2022-10-14T15:11:01.758Z,100943.88
2022-10-14T15:13:29.841Z,100933.13
2022-10-14T15:15:57.074Z,100916.75
2022-10-14T15:18:27.694Z,100924.47
2022-10-14T15:21:19.125Z,100924.75
2022-10-14T15:23:48.579Z,100921.44
2022-10-14T15:26:28.513Z,100915.56
2022-10-14T15:29:14.144Z,100909.97
2022-10-14T15:31:42.685Z,100903.25
2022-10-14T15:34:20.639Z,100906.81
2022-10-14T15:36:49.934Z,100901.94
2022-10-14T15:39:16.449Z,100901.13
2022-10-14T15:41:43.596Z,100892.69
2022-10-14T15:44:10.100Z,100898.66
2022-10-14T15:46:55.827Z,100895.72
2022-10-14T15:49:26.900Z,100893.09
2022-10-14T15:51:53.474Z,100886.16
2022-10-14T15:54:19.944Z,100885.56
2022-10-14T15:56:48.248Z,100885.94
2022-10-14T15:59:16.204Z,100877.53
2022-10-14T16:01:42.943Z,100873.63
2022-10-14T16:04:16.499Z,100858.81
2022-10-14T16:06:42.978Z,100854.78
2022-10-14T16:09:09.581Z,100858.94
2022-10-14T16:11:36.190Z,100870.19
2022-10-14T16:14:02.703Z,100863.81
2022-10-14T16:16:33.105Z,100850.91
2022-10-14T16:19:02.425Z,100860.19
2022-10-14T16:21:33.244Z,100861.81
2022-10-14T16:23:59.801Z,100852.34
2022-10-14T16:26:26.298Z,100839.63
2022-10-14T16:28:52.818Z,100845.97
2022-10-14T16:31:19.444Z,100849.81
2022-10-14T16:33:46.120Z,100837.31
2022-10-14T16:36:16.432Z,100838.16
2022-10-14T16:38:43.452Z,100825.22
2022-10-14T16:41:11.149Z,100822.31
2022-10-14T16:43:37.697Z,100821.34
2022-10-14T16:46:05.428Z,100815.28
2022-10-14T16:48:35.643Z,100819.19
2022-10-14T16:51:02.185Z,100826.13
2022-10-14T16:53:41.247Z,100831.31
2022-10-14T16:56:36.420Z,100835.34
2022-10-14T16:59:03.886Z,100829.38
2022-10-14T17:01:31.338Z,100830.13
2022-10-14T17:04:00.439Z,100822.59
2022-10-14T17:06:27.319Z,100824.09
2022-10-14T17:08:53.823Z,100817.69
2022-10-14T17:11:20.943Z,100820.31
2022-10-14T17:13:51.242Z,100809.53
2022-10-14T17:16:17.748Z,100811.06
2022-10-14T17:18:44.271Z,100809.97
2022-10-14T17:21:12.156Z,100812.72
2022-10-14T17:23:42.027Z,100817.94
2022-10-14T17:26:13.210Z,100819.63
2022-10-14T17:28:46.509Z,100823.88
2022-10-14T17:31:17.904Z,100822.44
2022-10-14T17:33:44.523Z,100818.81
2022-10-14T17:36:28.266Z,100814.59
2022-10-14T17:38:55.723Z,100806.44
2022-10-14T17:41:23.576Z,100798.03
2022-10-14T17:43:50.902Z,100805.50
2022-10-14T17:46:20.620Z,100801.97
2022-10-14T17:48:51.809Z,100810.25
2022-10-14T17:51:18.599Z,100802.97
2022-10-14T17:53:45.062Z,100799.13
2022-10-14T17:56:12.867Z,100797.69
2022-10-14T17:58:39.515Z,100796.69
2022-10-14T18:01:07.232Z,100786.22
2022-10-14T18:03:35.096Z,100786.91
2022-10-14T18:06:11.060Z,100777.28
2022-10-14T18:08:37.558Z,100775.31
2022-10-14T18:11:10.845Z,100770.38
2022-10-14T18:13:37.929Z,100771.22
2022-10-14T18:16:06.713Z,100767.09
2022-10-14T18:18:36.151Z,100758.75
2022-10-14T18:21:03.126Z,100760.78
2022-10-14T18:23:30.760Z,100760.81
2022-10-14T18:26:13.246Z,100760.00
2022-10-14T18:28:42.912Z,100756.72
2022-10-14T18:31:10.562Z,100757.56
2022-10-14T18:33:37.985Z,100741.38
2022-10-14T18:36:09.144Z,100726.84
2022-10-14T18:38:36.293Z,100726.03
2022-10-14T18:41:14.027Z,100726.03
2022-10-14T18:43:41.420Z,100717.63
2022-10-14T18:46:16.627Z,100717.84
2022-10-14T18:48:48.250Z,100712.47
2022-10-14T18:51:16.695Z,100714.53
2022-10-14T18:53:44.879Z,100711.09
2022-10-14T18:56:16.659Z,100716.81
2022-10-14T18:58:48.253Z,100703.28
2022-10-14T19:01:15.963Z,100715.19
2022-10-14T19:03:43.392Z,100707.78
2022-10-14T19:06:12.308Z,100706.59
2022-10-14T19:08:40.301Z,100703.25
2022-10-14T19:11:07.840Z,100698.78
2022-10-14T19:13:34.407Z,100696.50
2022-10-14T19:16:00.972Z,100689.94
2022-10-14T19:18:29.623Z,100678.66
2022-10-14T19:21:02.339Z,100672.50
2022-10-14T19:23:28.864Z,100672.28
2022-10-14T19:25:55.651Z,100672.50
2022-10-14T19:28:22.147Z,100664.50
2022-10-14T19:30:48.753Z,100665.75
2022-10-14T19:33:15.249Z,100658.97
2022-10-14T19:35:41.718Z,100647.28
2022-10-14T19:38:08.276Z,100644.63
2022-10-14T19:40:34.997Z,100639.47
2022-10-14T19:43:01.548Z,100631.91
2022-10-14T19:45:28.052Z,100637.03
2022-10-14T19:47:54.525Z,100623.31
2022-10-14T19:50:23.331Z,100624.94
2022-10-14T19:52:49.800Z,100618.78
2022-10-14T19:55:16.436Z,100615.72
2022-10-14T19:57:43.048Z,100604.03
2022-10-14T20:00:13.057Z,100604.03
2022-10-14T20:02:39.537Z,100604.25
2022-10-14T20:05:06.148Z,100603.63
2022-10-14T20:07:32.701Z,100596.47
2022-10-14T20:10:01.947Z,100602.22
2022-10-14T20:12:29.453Z,100598.50
2022-10-14T20:14:55.969Z,100597.91
2022-10-14T20:17:22.442Z,100591.34
2022-10-14T20:19:49.858Z,100585.19
2022-10-14T20:22:16.741Z,100581.91
2022-10-14T20:24:43.554Z,100586.41
2022-10-14T20:27:11.998Z,100581.09
2022-10-14T20:29:38.795Z,100570.66
2022-10-14T20:32:06.841Z,100571.03
2022-10-14T20:34:34.689Z,100564.28
2022-10-14T20:37:01.806Z,100564.72
2022-10-14T20:39:28.308Z,100558.75
2022-10-14T20:41:56.798Z,100565.28
2022-10-14T20:44:25.951Z,100558.16
2022-10-14T20:47:10.970Z,100553.22
2022-10-14T20:49:37.463Z,100546.25
2022-10-14T20:52:04.000Z,100542.56
2022-10-14T20:54:30.461Z,100547.06
2022-10-14T20:56:57.042Z,100545.41
2022-10-14T20:59:24.028Z,100542.75
2022-10-14T21:01:50.518Z,100534.75
2022-10-14T21:04:19.640Z,100535.19
2022-10-14T21:06:47.641Z,100532.09
2022-10-14T21:09:14.211Z,100527.59
2022-10-14T21:11:41.441Z,100531.47
2022-10-14T21:14:07.951Z,100523.72
2022-10-14T21:16:35.886Z,100519.19
2022-10-14T21:19:10.012Z,100520.00
2022-10-14T21:21:52.610Z,100516.09
2022-10-14T21:24:23.185Z,100513.84
2022-10-14T21:26:51.079Z,100505.25
2022-10-14T21:29:19.105Z,100514.03
2022-10-14T21:31:46.119Z,100500.09
2022-10-14T21:34:12.748Z,100505.63
2022-10-14T21:36:42.362Z,100498.25
2022-10-14T21:39:14.117Z,100495.38
2022-10-14T21:41:41.049Z,100503.97
2022-10-14T21:44:08.301Z,100498.84
2022-10-14T21:46:35.655Z,100491.03
2022-10-14T21:49:02.128Z,100490.44
2022-10-14T21:51:29.908Z,100492.88
2022-10-14T21:54:00.612Z,100482.81
2022-10-14T21:56:27.535Z,100473.38
2022-10-14T21:58:54.356Z,100474.00
2022-10-14T22:01:27.035Z,100468.84
2022-10-14T22:04:00.714Z,100468.59
2022-10-14T22:06:27.483Z,100462.41
2022-10-14T22:08:56.212Z,100452.16
2022-10-14T22:11:24.327Z,100451.91
2022-10-14T22:13:51.290Z,100455.84
2022-10-14T22:16:18.547Z,100443.34
2022-10-14T22:18:46.994Z,100435.56
2022-10-14T22:21:15.546Z,100435.50
2022-10-14T22:23:42.088Z,100421.31
2022-10-14T22:26:13.279Z,100414.75
2022-10-14T22:28:40.357Z,100412.28
2022-10-14T22:31:12.390Z,100412.34
2022-10-14T22:33:39.623Z,100418.25
2022-10-14T22:36:23.558Z,100405.50
2022-10-14T22:38:52.652Z,100403.72
2022-10-14T22:41:19.553Z,100402.47
2022-10-14T22:43:53.927Z,100402.25
2022-10-14T22:46:31.365Z,100396.09
2022-10-14T22:48:58.554Z,100399.38
2022-10-14T22:53:58.932Z,100404.44
2022-10-14T22:56:27.365Z,100405.28
2022-10-14T22:59:08.219Z,100406.91
2022-10-14T23:01:35.408Z,100406.47
2022-10-14T23:04:02.619Z,100403.59
2022-10-14T23:06:29.724Z,100401.53
2022-10-14T23:08:56.842Z,100402.13
2022-10-14T23:11:24.653Z,100394.94
2022-10-14T23:13:51.514Z,100390.66
2022-10-14T23:16:20.085Z,100390.31
2022-10-14T23:18:46.633Z,100390.81
2022-10-14T23:21:23.198Z,100394.09
2022-10-14T23:23:50.534Z,100393.03
2022-10-14T23:26:18.819Z,100389.31
2022-10-14T23:28:48.660Z,100388.66
2022-10-14T23:31:17.607Z,100387.25
2022-10-14T23:33:44.149Z,100395.66
2022-10-14T23:36:12.459Z,100401.81
2022-10-14T23:38:39.895Z,100389.72
2022-10-14T23:41:07.482Z,100387.41
2022-10-14T23:43:34.068Z,100401.38
2022-10-14T23:46:00.534Z,100397.69
2022-10-14T23:48:27.253Z,100389.06
2022-10-14T23:50:54.239Z,100394.19
2022-10-14T23:53:20.972Z,100394.56
2022-10-14T23:55:47.429Z,100388.41
2022-10-14T23:58:13.972Z,100390.84
